Portada
METAR-TAF:

METAR-TAF

Aeroports :

Txungking, Xina

latitud: 29-31N, longitud: 106-29E, altitud: 351 m

Observació

L'informe es va fer fa 28 minuts, a les 11:00 UTC
Vent 6 kt del Nord-Est
Temperatura 19°C
Humitat 73%
Pressió 1014 hPa
Visibilitat 10 km o més
sense núvols per sota de 1500 mi sense presència de cumulonimbus.

METAR: ZUCK 171100Z 05003MPS CAVOK 19/14 Q1014 NOSIG

Hora: 19:28 (11:28 UTC)

Pronòstic

L'informe es va fer fa 8 hores i 23 minuts, a les 03:05 UTC
Pronòstic vàlid del 17 a les 06 UTC al 18 a les 06 UTC
Vent 6 kt del Est/Sud-Est
Visibilitat: 3500 m
Núvols disperses a una alçada de 4000 ft
boirina
Temporalment
l' 18 a les 00 UTC al 18 a les 06 UTC
Visibilitat: 2800 m
pluja, boirina

TAF: ZUCK 170305Z 1706/1806 12003MPS 3500 BR SCT040 TX22/1707Z TN16/1721Z TEMPO 1800/1806 2800 -RA BR

Observacions i pronòstics meteorològics de més de 4000 aeroports (METAR i TAF).

Les estacions disponibles són els punts grocs i vermells al mapa.

Posi el ratolí al punt desitjat per veure el nom de l'estació.

Feu clic per veure les observacions i els pronòstics meteorològics.

Per canviar el mapa: feu clic els botons verds amb una creu de color negre per apropar; al botó verd amb un guió per allunyar la imatge; o en les fletxes verdes per a mapes adjacents.


METAR-TAF: